sensor_id;sensor_type;location;lat;lon;timestamp;pressure;altitude;pressure_sealevel;temperature;humidity
35011;BME280;21205;37.378;127.098;2023-03-14T00:01:27;100776.88;;;20.94;25.72
35011;BME280;21205;37.378;127.098;2023-03-14T00:03:57;100777.72;;;20.83;24.68
35011;BME280;21205;37.378;127.098;2023-03-14T00:06:27;100784.84;;;20.68;25.11
35011;BME280;21205;37.378;127.098;2023-03-14T00:08:57;100778.53;;;20.34;25.51
35011;BME280;21205;37.378;127.098;2023-03-14T00:11:26;100783.13;;;20.06;25.57
35011;BME280;21205;37.378;127.098;2023-03-14T00:13:56;100775.09;;;19.92;25.82
35011;BME280;21205;37.378;127.098;2023-03-14T00:16:26;100768.94;;;19.86;26.25
35011;BME280;21205;37.378;127.098;2023-03-14T00:18:58;100774.56;;;19.66;26.18
35011;BME280;21205;37.378;127.098;2023-03-14T00:21:28;100773.53;;;19.49;26.35
35011;BME280;21205;37.378;127.098;2023-03-14T00:23:57;100782.56;;;19.55;26.87
35011;BME280;21205;37.378;127.098;2023-03-14T00:26:27;100775.25;;;19.42;26.64
35011;BME280;21205;37.378;127.098;2023-03-14T00:28:58;100778.47;;;19.32;26.81
35011;BME280;21205;37.378;127.098;2023-03-14T00:31:28;100770.09;;;19.32;26.97
35011;BME280;21205;37.378;127.098;2023-03-14T00:33:57;100769.16;;;19.27;26.85
35011;BME280;21205;37.378;127.098;2023-03-14T00:36:27;100768.44;;;19.51;26.60
35011;BME280;21205;37.378;127.098;2023-03-14T00:38:56;100770.53;;;19.21;27.16
35011;BME280;21205;37.378;127.098;2023-03-14T00:41:26;100777.84;;;19.26;27.09
35011;BME280;21205;37.378;127.098;2023-03-14T00:43:56;100773.44;;;19.25;27.20
35011;BME280;21205;37.378;127.098;2023-03-14T00:46:25;100766.50;;;19.31;26.85
35011;BME280;21205;37.378;127.098;2023-03-14T00:48:55;100774.31;;;19.17;27.00
35011;BME280;21205;37.378;127.098;2023-03-14T00:51:24;100777.97;;;19.09;27.61
35011;BME280;21205;37.378;127.098;2023-03-14T00:53:54;100770.78;;;19.08;27.81
35011;BME280;21205;37.378;127.098;2023-03-14T00:56:24;100777.72;;;19.22;27.19
35011;BME280;21205;37.378;127.098;2023-03-14T00:58:55;100770.75;;;19.49;27.55
35011;BME280;21205;37.378;127.098;2023-03-14T01:01:24;100772.16;;;19.22;27.32
35011;BME280;21205;37.378;127.098;2023-03-14T01:03:55;100755.44;;;19.22;27.12
35011;BME280;21205;37.378;127.098;2023-03-14T01:06:27;100753.16;;;19.16;27.80
35011;BME280;21205;37.378;127.098;2023-03-14T01:08:57;100751.41;;;19.32;27.29
35011;BME280;21205;37.378;127.098;2023-03-14T01:11:32;100748.34;;;19.25;27.42
35011;BME280;21205;37.378;127.098;2023-03-14T01:14:03;100751.53;;;19.36;27.57
35011;BME280;21205;37.378;127.098;2023-03-14T01:16:34;100754.19;;;19.32;26.96
35011;BME280;21205;37.378;127.098;2023-03-14T01:19:04;100738.28;;;19.33;27.54
35011;BME280;21205;37.378;127.098;2023-03-14T01:21:35;100739.66;;;19.26;26.93
35011;BME280;21205;37.378;127.098;2023-03-14T01:24:06;100735.25;;;19.58;27.48
35011;BME280;21205;37.378;127.098;2023-03-14T01:26:35;100726.63;;;19.51;27.06
35011;BME280;21205;37.378;127.098;2023-03-14T01:29:05;100730.06;;;19.69;26.41
35011;BME280;21205;37.378;127.098;2023-03-14T01:31:35;100742.47;;;19.60;27.03
35011;BME280;21205;37.378;127.098;2023-03-14T01:34:05;100721.69;;;19.81;26.42
35011;BME280;21205;37.378;127.098;2023-03-14T01:36:34;100725.88;;;19.75;26.52
35011;BME280;21205;37.378;127.098;2023-03-14T01:39:04;100711.22;;;19.66;27.06
35011;BME280;21205;37.378;127.098;2023-03-14T01:41:35;100712.63;;;19.72;27.27
35011;BME280;21205;37.378;127.098;2023-03-14T01:44:04;100720.53;;;19.70;26.97
35011;BME280;21205;37.378;127.098;2023-03-14T01:46:40;100717.63;;;19.79;26.58
35011;BME280;21205;37.378;127.098;2023-03-14T01:49:29;100723.78;;;19.72;27.13
35011;BME280;21205;37.378;127.098;2023-03-14T01:57:29;100716.84;;;19.91;26.41
35011;BME280;21205;37.378;127.098;2023-03-14T02:00:21;100712.84;;;19.79;26.29
35011;BME280;21205;37.378;127.098;2023-03-14T02:02:55;100712.56;;;19.93;26.21
35011;BME280;21205;37.378;127.098;2023-03-14T02:05:28;100709.06;;;19.96;26.12
35011;BME280;21205;37.378;127.098;2023-03-14T02:08:04;100706.97;;;19.93;25.93
35011;BME280;21205;37.378;127.098;2023-03-14T02:10:46;100701.28;;;19.89;26.32
35011;BME280;21205;37.378;127.098;2023-03-14T02:13:19;100698.22;;;19.82;26.06
35011;BME280;21205;37.378;127.098;2023-03-14T02:15:51;100689.53;;;19.84;26.19
35011;BME280;21205;37.378;127.098;2023-03-14T02:18:20;100686.38;;;19.98;26.23
35011;BME280;21205;37.378;127.098;2023-03-14T02:21:23;100695.00;;;19.93;26.28
35011;BME280;21205;37.378;127.098;2023-03-14T02:24:13;100690.09;;;19.89;26.01
35011;BME280;21205;37.378;127.098;2023-03-14T02:27:06;100679.53;;;20.07;25.66
35011;BME280;21205;37.378;127.098;2023-03-14T02:29:58;100677.06;;;20.06;25.57
35011;BME280;21205;37.378;127.098;2023-03-14T02:32:31;100677.31;;;20.13;25.83
35011;BME280;21205;37.378;127.098;2023-03-14T02:35:06;100664.75;;;20.19;26.00
35011;BME280;21205;37.378;127.098;2023-03-14T02:37:43;100668.03;;;20.21;25.66
35011;BME280;21205;37.378;127.098;2023-03-14T02:40:15;100668.69;;;20.30;26.09
35011;BME280;21205;37.378;127.098;2023-03-14T02:42:45;100683.34;;;20.39;25.83
35011;BME280;21205;37.378;127.098;2023-03-14T02:47:51;100673.22;;;20.35;25.73
35011;BME280;21205;37.378;127.098;2023-03-14T02:50:27;100674.28;;;20.30;25.83
35011;BME280;21205;37.378;127.098;2023-03-14T02:52:59;100673.13;;;20.31;25.75
35011;BME280;21205;37.378;127.098;2023-03-14T02:55:32;100658.09;;;20.36;25.41
35011;BME280;21205;37.378;127.098;2023-03-14T02:58:02;100660.22;;;20.51;25.24
35011;BME280;21205;37.378;127.098;2023-03-14T03:00:31;100658.59;;;20.50;25.96
35011;BME280;21205;37.378;127.098;2023-03-14T03:03:02;100659.84;;;20.53;25.40
35011;BME280;21205;37.378;127.098;2023-03-14T03:05:33;100665.09;;;20.54;25.67
35011;BME280;21205;37.378;127.098;2023-03-14T03:08:03;100667.63;;;20.59;25.58
35011;BME280;21205;37.378;127.098;2023-03-14T03:10:33;100660.31;;;20.55;25.23
35011;BME280;21205;37.378;127.098;2023-03-14T03:13:02;100654.03;;;20.58;25.86
35011;BME280;21205;37.378;127.098;2023-03-14T03:15:32;100660.53;;;20.62;25.41
35011;BME280;21205;37.378;127.098;2023-03-14T03:18:02;100663.19;;;20.70;25.38
35011;BME280;21205;37.378;127.098;2023-03-14T03:20:32;100665.16;;;20.70;25.52
35011;BME280;21205;37.378;127.098;2023-03-14T03:23:02;100647.94;;;20.68;25.71
35011;BME280;21205;37.378;127.098;2023-03-14T03:25:32;100641.63;;;20.71;25.73
35011;BME280;21205;37.378;127.098;2023-03-14T03:28:02;100636.16;;;20.74;25.66
35011;BME280;21205;37.378;127.098;2023-03-14T03:30:39;100644.81;;;20.97;25.54
35011;BME280;21205;37.378;127.098;2023-03-14T03:33:11;100626.69;;;20.79;26.19
35011;BME280;21205;37.378;127.098;2023-03-14T03:35:48;100627.63;;;20.83;25.76
35011;BME280;21205;37.378;127.098;2023-03-14T03:38:19;100618.28;;;20.91;25.66
35011;BME280;21205;37.378;127.098;2023-03-14T03:40:49;100610.09;;;20.98;26.20
35011;BME280;21205;37.378;127.098;2023-03-14T03:43:18;100618.47;;;20.98;25.60
35011;BME280;21205;37.378;127.098;2023-03-14T03:45:48;100606.38;;;20.94;25.32
35011;BME280;21205;37.378;127.098;2023-03-14T03:48:21;100615.41;;;21.03;25.49
35011;BME280;21205;37.378;127.098;2023-03-14T03:50:51;100613.28;;;21.12;25.50
35011;BME280;21205;37.378;127.098;2023-03-14T03:53:20;100600.69;;;21.19;25.68
35011;BME280;21205;37.378;127.098;2023-03-14T03:56:00;100600.47;;;21.11;25.35
35011;BME280;21205;37.378;127.098;2023-03-14T03:58:30;100596.56;;;21.00;25.93
35011;BME280;21205;37.378;127.098;2023-03-14T04:01:00;100596.75;;;20.92;26.29
35011;BME280;21205;37.378;127.098;2023-03-14T04:03:30;100596.75;;;20.92;26.29
35011;BME280;21205;37.378;127.098;2023-03-14T04:06:08;100580.16;;;21.27;25.04
35011;BME280;21205;37.378;127.098;2023-03-14T04:08:38;100570.59;;;21.28;25.65
35011;BME280;21205;37.378;127.098;2023-03-14T04:11:10;100573.38;;;21.28;25.28
35011;BME280;21205;37.378;127.098;2023-03-14T04:13:40;100572.94;;;21.26;25.23
35011;BME280;21205;37.378;127.098;2023-03-14T04:16:17;100571.31;;;21.25;25.02
35011;BME280;21205;37.378;127.098;2023-03-14T04:18:48;100561.47;;;21.31;25.73
35011;BME280;21205;37.378;127.098;2023-03-14T04:21:18;100575.19;;;21.52;25.39
35011;BME280;21205;37.378;127.098;2023-03-14T04:23:48;100570.88;;;21.54;24.22
35011;BME280;21205;37.378;127.098;2023-03-14T04:26:18;100572.31;;;21.48;23.36
35011;BME280;21205;37.378;127.098;2023-03-14T04:28:47;100562.31;;;21.47;22.22
35011;BME280;21205;37.378;127.098;2023-03-14T04:31:20;100554.88;;;21.39;21.50
35011;BME280;21205;37.378;127.098;2023-03-14T04:33:50;100545.31;;;21.40;21.16
35011;BME280;21205;37.378;127.098;2023-03-14T04:36:20;100534.31;;;21.31;20.37
35011;BME280;21205;37.378;127.098;2023-03-14T04:38:50;100530.03;;;21.06;21.48
35011;BME280;21205;37.378;127.098;2023-03-14T04:41:19;100531.66;;;21.07;21.51
35011;BME280;21205;37.378;127.098;2023-03-14T04:43:49;100527.13;;;21.02;20.65
35011;BME280;21205;37.378;127.098;2023-03-14T04:46:19;100525.69;;;20.93;20.54
35011;BME280;21205;37.378;127.098;2023-03-14T04:48:49;100519.09;;;20.85;20.47
35011;BME280;21205;37.378;127.098;2023-03-14T04:51:19;100514.03;;;20.75;19.44
35011;BME280;21205;37.378;127.098;2023-03-14T04:53:51;100516.19;;;20.66;19.21
35011;BME280;21205;37.378;127.098;2023-03-14T04:56:21;100515.06;;;20.55;18.59
35011;BME280;21205;37.378;127.098;2023-03-14T04:58:52;100504.75;;;20.43;19.88
35011;BME280;21205;37.378;127.098;2023-03-14T05:01:22;100497.84;;;20.53;18.70
35011;BME280;21205;37.378;127.098;2023-03-14T05:03:52;100487.41;;;20.49;19.15
35011;BME280;21205;37.378;127.098;2023-03-14T05:06:22;100486.91;;;20.47;19.02
35011;BME280;21205;37.378;127.098;2023-03-14T05:08:52;100492.50;;;20.47;18.80
35011;BME280;21205;37.378;127.098;2023-03-14T05:11:21;100488.22;;;20.50;19.16
35011;BME280;21205;37.378;127.098;2023-03-14T05:13:51;100483.56;;;20.42;18.69
35011;BME280;21205;37.378;127.098;2023-03-14T05:16:21;100491.94;;;20.42;18.84
35011;BME280;21205;37.378;127.098;2023-03-14T05:18:51;100492.44;;;20.32;18.47
35011;BME280;21205;37.378;127.098;2023-03-14T05:21:21;100494.41;;;20.31;18.41
35011;BME280;21205;37.378;127.098;2023-03-14T05:23:51;100469.84;;;20.37;18.88
35011;BME280;21205;37.378;127.098;2023-03-14T05:26:21;100479.03;;;20.37;19.33
35011;BME280;21205;37.378;127.098;2023-03-14T05:28:50;100482.34;;;20.27;18.97
35011;BME280;21205;37.378;127.098;2023-03-14T05:31:20;100463.25;;;20.29;19.34
35011;BME280;21205;37.378;127.098;2023-03-14T05:33:50;100485.59;;;20.29;19.70
35011;BME280;21205;37.378;127.098;2023-03-14T05:36:20;100476.19;;;20.22;19.27
35011;BME280;21205;37.378;127.098;2023-03-14T05:38:50;100473.88;;;20.24;19.66
35011;BME280;21205;37.378;127.098;2023-03-14T05:41:20;100467.94;;;20.13;19.68
35011;BME280;21205;37.378;127.098;2023-03-14T05:43:50;100466.31;;;20.12;19.92
35011;BME280;21205;37.378;127.098;2023-03-14T05:46:19;100469.94;;;20.12;20.14
35011;BME280;21205;37.378;127.098;2023-03-14T05:48:49;100473.06;;;20.11;19.88
35011;BME280;21205;37.378;127.098;2023-03-14T05:51:19;100467.75;;;20.06;20.23
35011;BME280;21205;37.378;127.098;2023-03-14T05:53:49;100467.19;;;20.00;19.91
35011;BME280;21205;37.378;127.098;2023-03-14T05:56:19;100469.88;;;19.97;20.16
35011;BME280;21205;37.378;127.098;2023-03-14T05:58:49;100459.88;;;19.96;20.15
35011;BME280;21205;37.378;127.098;2023-03-14T06:01:19;100461.06;;;19.95;20.46
35011;BME280;21205;37.378;127.098;2023-03-14T06:03:49;100461.06;;;19.95;20.83
35011;BME280;21205;37.378;127.098;2023-03-14T06:06:19;100470.28;;;20.11;20.68
35011;BME280;21205;37.378;127.098;2023-03-14T06:08:48;100458.88;;;20.16;20.57
35011;BME280;21205;37.378;127.098;2023-03-14T06:11:18;100456.91;;;20.16;21.04
35011;BME280;21205;37.378;127.098;2023-03-14T06:13:48;100460.53;;;20.17;20.99
35011;BME280;21205;37.378;127.098;2023-03-14T06:16:18;100454.81;;;20.13;20.63
35011;BME280;21205;37.378;127.098;2023-03-14T06:18:48;100453.91;;;20.09;20.52
35011;BME280;21205;37.378;127.098;2023-03-14T06:21:18;100466.38;;;20.00;20.50
35011;BME280;21205;37.378;127.098;2023-03-14T06:23:48;100477.75;;;20.07;20.59
35011;BME280;21205;37.378;127.098;2023-03-14T06:26:18;100475.91;;;19.99;20.35
35011;BME280;21205;37.378;127.098;2023-03-14T06:28:47;100476.28;;;19.97;20.21
35011;BME280;21205;37.378;127.098;2023-03-14T06:31:17;100466.97;;;19.93;20.49
35011;BME280;21205;37.378;127.098;2023-03-14T06:33:47;100465.88;;;20.10;20.78
35011;BME280;21205;37.378;127.098;2023-03-14T06:36:17;100447.50;;;20.09;20.79
35011;BME280;21205;37.378;127.098;2023-03-14T06:38:46;100454.25;;;20.08;20.40
35011;BME280;21205;37.378;127.098;2023-03-14T06:41:16;100457.56;;;19.98;20.77
35011;BME280;21205;37.378;127.098;2023-03-14T06:43:46;100456.03;;;20.00;20.42
35011;BME280;21205;37.378;127.098;2023-03-14T06:46:16;100464.75;;;19.99;20.87
35011;BME280;21205;37.378;127.098;2023-03-14T06:48:45;100458.91;;;20.04;21.02
35011;BME280;21205;37.378;127.098;2023-03-14T06:51:15;100468.22;;;20.08;21.17
35011;BME280;21205;37.378;127.098;2023-03-14T06:53:45;100468.31;;;20.11;21.12
35011;BME280;21205;37.378;127.098;2023-03-14T06:56:15;100468.41;;;20.15;21.15
35011;BME280;21205;37.378;127.098;2023-03-14T06:58:44;100466.03;;;20.01;21.41
35011;BME280;21205;37.378;127.098;2023-03-14T07:01:25;100459.56;;;19.85;21.59
35011;BME280;21205;37.378;127.098;2023-03-14T07:03:56;100465.59;;;19.87;21.74
35011;BME280;21205;37.378;127.098;2023-03-14T07:06:26;100460.19;;;20.06;21.97
35011;BME280;21205;37.378;127.098;2023-03-14T07:08:58;100450.97;;;20.46;21.56
35011;BME280;21205;37.378;127.098;2023-03-14T07:11:30;100442.72;;;20.65;21.26
35011;BME280;21205;37.378;127.098;2023-03-14T07:14:00;100444.72;;;20.80;21.22
35011;BME280;21205;37.378;127.098;2023-03-14T07:16:29;100455.47;;;20.94;21.48
35011;BME280;21205;37.378;127.098;2023-03-14T07:19:02;100444.47;;;21.01;21.24
35011;BME280;21205;37.378;127.098;2023-03-14T07:21:32;100446.53;;;21.04;21.36
35011;BME280;21205;37.378;127.098;2023-03-14T07:24:03;100443.91;;;21.11;21.17
35011;BME280;21205;37.378;127.098;2023-03-14T07:26:33;100446.81;;;21.15;21.33
35011;BME280;21205;37.378;127.098;2023-03-14T07:29:03;100448.88;;;21.18;21.58
35011;BME280;21205;37.378;127.098;2023-03-14T07:31:32;100451.31;;;21.20;21.41
35011;BME280;21205;37.378;127.098;2023-03-14T07:34:05;100451.31;;;21.20;21.76
35011;BME280;21205;37.378;127.098;2023-03-14T07:36:35;100454.56;;;21.22;21.89
35011;BME280;21205;37.378;127.098;2023-03-14T07:39:05;100447.78;;;21.23;21.78
35011;BME280;21205;37.378;127.098;2023-03-14T07:41:34;100452.25;;;21.24;21.81
35011;BME280;21205;37.378;127.098;2023-03-14T07:44:04;100447.47;;;21.24;21.75
35011;BME280;21205;37.378;127.098;2023-03-14T07:46:34;100451.06;;;21.25;22.00
35011;BME280;21205;37.378;127.098;2023-03-14T07:49:04;100447.09;;;21.26;22.31
35011;BME280;21205;37.378;127.098;2023-03-14T07:51:34;100446.28;;;21.25;22.26
35011;BME280;21205;37.378;127.098;2023-03-14T07:54:03;100445.09;;;21.26;22.52
35011;BME280;21205;37.378;127.098;2023-03-14T07:56:33;100442.31;;;21.26;22.50
35011;BME280;21205;37.378;127.098;2023-03-14T07:59:03;100444.75;;;21.28;22.13
35011;BME280;21205;37.378;127.098;2023-03-14T08:01:32;100438.44;;;21.31;22.15
35011;BME280;21205;37.378;127.098;2023-03-14T08:04:11;100439.16;;;21.28;22.49
35011;BME280;21205;37.378;127.098;2023-03-14T08:06:41;100447.19;;;21.29;22.56
35011;BME280;21205;37.378;127.098;2023-03-14T08:09:11;100452.41;;;21.31;22.37
35011;BME280;21205;37.378;127.098;2023-03-14T08:11:43;100449.88;;;21.26;22.70
35011;BME280;21205;37.378;127.098;2023-03-14T08:14:13;100447.78;;;21.23;23.00
35011;BME280;21205;37.378;127.098;2023-03-14T08:16:42;100448.31;;;21.12;23.14
35011;BME280;21205;37.378;127.098;2023-03-14T08:19:12;100445.72;;;21.04;23.23
35011;BME280;21205;37.378;127.098;2023-03-14T08:21:42;100446.72;;;20.96;23.21
35011;BME280;21205;37.378;127.098;2023-03-14T08:24:11;100445.28;;;20.86;23.26
35011;BME280;21205;37.378;127.098;2023-03-14T08:26:41;100445.44;;;20.77;23.19
35011;BME280;21205;37.378;127.098;2023-03-14T08:29:11;100448.84;;;20.71;23.31
35011;BME280;21205;37.378;127.098;2023-03-14T08:31:41;100453.44;;;20.63;23.63
35011;BME280;21205;37.378;127.098;2023-03-14T08:34:11;100454.06;;;20.57;23.65
35011;BME280;21205;37.378;127.098;2023-03-14T08:36:42;100460.75;;;20.52;23.68
35011;BME280;21205;37.378;127.098;2023-03-14T08:39:12;100459.72;;;20.44;23.92
35011;BME280;21205;37.378;127.098;2023-03-14T08:41:41;100461.91;;;20.39;23.92
35011;BME280;21205;37.378;127.098;2023-03-14T08:44:13;100456.13;;;20.32;24.13
35011;BME280;21205;37.378;127.098;2023-03-14T08:46:46;100463.59;;;20.28;24.15
35011;BME280;21205;37.378;127.098;2023-03-14T08:49:16;100461.88;;;20.23;24.09
35011;BME280;21205;37.378;127.098;2023-03-14T08:51:46;100462.94;;;20.18;24.53
35011;BME280;21205;37.378;127.098;2023-03-14T08:54:16;100461.91;;;20.11;24.31
35011;BME280;21205;37.378;127.098;2023-03-14T08:56:46;100465.78;;;20.06;24.43
35011;BME280;21205;37.378;127.098;2023-03-14T08:59:16;100460.44;;;20.01;24.66
35011;BME280;21205;37.378;127.098;2023-03-14T09:01:46;100463.13;;;19.98;24.67
35011;BME280;21205;37.378;127.098;2023-03-14T09:04:16;100460.25;;;19.94;24.56
35011;BME280;21205;37.378;127.098;2023-03-14T09:06:49;100465.25;;;19.88;24.69
35011;BME280;21205;37.378;127.098;2023-03-14T09:09:18;100467.13;;;19.84;24.80
35011;BME280;21205;37.378;127.098;2023-03-14T09:11:48;100468.25;;;19.83;24.94
35011;BME280;21205;37.378;127.098;2023-03-14T09:14:17;100472.94;;;19.79;25.45
35011;BME280;21205;37.378;127.098;2023-03-14T09:16:49;100468.41;;;19.75;24.85
35011;BME280;21205;37.378;127.098;2023-03-14T09:19:20;100472.38;;;19.74;24.98
35011;BME280;21205;37.378;127.098;2023-03-14T09:21:50;100479.09;;;19.73;25.20
35011;BME280;21205;37.378;127.098;2023-03-14T09:24:20;100477.84;;;19.70;25.57
35011;BME280;21205;37.378;127.098;2023-03-14T09:26:49;100483.66;;;19.65;25.21
35011;BME280;21205;37.378;127.098;2023-03-14T09:29:19;100485.63;;;19.65;25.61
35011;BME280;21205;37.378;127.098;2023-03-14T09:31:49;100486.00;;;19.63;25.59
35011;BME280;21205;37.378;127.098;2023-03-14T09:34:19;100489.94;;;19.62;25.26
35011;BME280;21205;37.378;127.098;2023-03-14T09:36:48;100491.47;;;19.60;25.48
35011;BME280;21205;37.378;127.098;2023-03-14T09:39:18;100485.41;;;19.57;25.16
35011;BME280;21205;37.378;127.098;2023-03-14T09:41:50;100494.13;;;19.56;25.59
35011;BME280;21205;37.378;127.098;2023-03-14T09:44:48;100495.66;;;19.53;25.88
35011;BME280;21205;37.378;127.098;2023-03-14T09:47:21;100487.13;;;19.50;25.53
35011;BME280;21205;37.378;127.098;2023-03-14T09:49:52;100491.06;;;19.49;25.95
35011;BME280;21205;37.378;127.098;2023-03-14T09:52:35;100492.56;;;19.46;25.74
35011;BME280;21205;37.378;127.098;2023-03-14T09:55:16;100490.16;;;19.45;26.04
35011;BME280;21205;37.378;127.098;2023-03-14T09:57:47;100496.06;;;19.43;25.78
35011;BME280;21205;37.378;127.098;2023-03-14T10:00:23;100499.22;;;19.42;25.82
35011;BME280;21205;37.378;127.098;2023-03-14T10:05:29;100501.53;;;19.40;26.13
35011;BME280;21205;37.378;127.098;2023-03-14T10:07:58;100501.88;;;19.38;25.58
35011;BME280;21205;37.378;127.098;2023-03-14T10:10:28;100505.03;;;19.37;25.94
35011;BME280;21205;37.378;127.098;2023-03-14T10:13:19;100507.34;;;19.35;26.20
35011;BME280;21205;37.378;127.098;2023-03-14T10:16:01;100516.88;;;19.34;26.28
35011;BME280;21205;37.378;127.098;2023-03-14T10:18:33;100515.59;;;19.31;26.21
35011;BME280;21205;37.378;127.098;2023-03-14T10:21:17;100521.16;;;19.31;26.34
35011;BME280;21205;37.378;127.098;2023-03-14T10:23:50;100521.50;;;19.30;26.46
35011;BME280;21205;37.378;127.098;2023-03-14T10:26:28;100522.22;;;19.26;26.04
35011;BME280;21205;37.378;127.098;2023-03-14T10:29:12;100528.94;;;19.25;26.46
35011;BME280;21205;37.378;127.098;2023-03-14T10:34:27;100540.81;;;19.22;26.54
35011;BME280;21205;37.378;127.098;2023-03-14T10:37:22;100546.72;;;19.21;26.20
35011;BME280;21205;37.378;127.098;2023-03-14T10:39:58;100543.47;;;19.19;26.74
35011;BME280;21205;37.378;127.098;2023-03-14T10:42:44;100543.78;;;19.17;26.18
35011;BME280;21205;37.378;127.098;2023-03-14T10:45:28;100556.09;;;19.16;26.28
35011;BME280;21205;37.378;127.098;2023-03-14T10:53:29;100555.16;;;19.12;26.74
35011;BME280;21205;37.378;127.098;2023-03-14T10:56:03;100563.06;;;19.10;26.30
35011;BME280;21205;37.378;127.098;2023-03-14T10:58:40;100556.66;;;19.10;26.34
35011;BME280;21205;37.378;127.098;2023-03-14T11:06:58;100558.50;;;19.06;26.99
35011;BME280;21205;37.378;127.098;2023-03-14T11:12:46;100557.25;;;19.03;26.86
35011;BME280;21205;37.378;127.098;2023-03-14T11:18:43;100563.50;;;19.00;26.70
35011;BME280;21205;37.378;127.098;2023-03-14T11:29:27;100566.97;;;18.97;26.76
35011;BME280;21205;37.378;127.098;2023-03-14T11:32:02;100574.88;;;18.95;26.89
35011;BME280;21205;37.378;127.098;2023-03-14T11:37:36;100576.84;;;18.94;27.04
35011;BME280;21205;37.378;127.098;2023-03-14T11:40:18;100580.78;;;18.93;26.81
35011;BME280;21205;37.378;127.098;2023-03-14T11:45:41;100582.28;;;18.91;27.36
35011;BME280;21205;37.378;127.098;2023-03-14T11:48:34;100581.47;;;18.90;27.45
35011;BME280;21205;37.378;127.098;2023-03-14T11:51:16;100577.88;;;18.90;27.02
35011;BME280;21205;37.378;127.098;2023-03-14T11:56:59;100586.91;;;18.87;26.98
35011;BME280;21205;37.378;127.098;2023-03-14T11:59:40;100580.53;;;18.86;27.45
35011;BME280;21205;37.378;127.098;2023-03-14T12:10:49;100585.13;;;18.82;27.48
35011;BME280;21205;37.378;127.098;2023-03-14T12:13:21;100595.00;;;18.80;27.28
35011;BME280;21205;37.378;127.098;2023-03-14T12:18:31;100606.47;;;18.78;27.19
35011;BME280;21205;37.378;127.098;2023-03-14T12:21:05;100608.47;;;18.78;27.66
35011;BME280;21205;37.378;127.098;2023-03-14T12:23:52;100609.63;;;18.77;27.49
35011;BME280;21205;37.378;127.098;2023-03-14T12:26:25;100607.97;;;18.76;27.94
35011;BME280;21205;37.378;127.098;2023-03-14T12:39:46;100630.47;;;18.71;27.52
35011;BME280;21205;37.378;127.098;2023-03-14T12:45:35;100633.25;;;18.71;27.90
35011;BME280;21205;37.378;127.098;2023-03-14T12:48:23;100631.63;;;18.70;28.02
35011;BME280;21205;37.378;127.098;2023-03-14T12:50:56;100628.38;;;18.68;27.70
35011;BME280;21205;37.378;127.098;2023-03-14T12:53:57;100631.97;;;18.68;27.93
35011;BME280;21205;37.378;127.098;2023-03-14T13:05:14;100634.63;;;18.64;28.33
35011;BME280;21205;37.378;127.098;2023-03-14T13:10:29;100633.34;;;18.62;27.92
35011;BME280;21205;37.378;127.098;2023-03-14T13:15:55;100625.31;;;18.60;28.26
35011;BME280;21205;37.378;127.098;2023-03-14T13:18:44;100630.06;;;18.60;28.52
35011;BME280;21205;37.378;127.098;2023-03-14T13:21:25;100625.63;;;18.59;28.01
35011;BME280;21205;37.378;127.098;2023-03-14T13:26:43;100622.38;;;18.57;28.80
35011;BME280;21205;37.378;127.098;2023-03-14T13:31:46;100618.78;;;18.56;28.26
35011;BME280;21205;37.378;127.098;2023-03-14T13:34:17;100615.19;;;18.56;28.40
35011;BME280;21205;37.378;127.098;2023-03-14T13:36:51;100622.72;;;18.55;28.72
35011;BME280;21205;37.378;127.098;2023-03-14T13:39:23;100627.78;;;18.53;28.57
35011;BME280;21205;37.378;127.098;2023-03-14T13:42:00;100635.03;;;18.54;28.65
35011;BME280;21205;37.378;127.098;2023-03-14T13:44:39;100636.16;;;18.53;28.26
35011;BME280;21205;37.378;127.098;2023-03-14T13:47:17;100615.84;;;18.53;28.36
35011;BME280;21205;37.378;127.098;2023-03-14T13:49:48;100623.38;;;18.52;28.60
35011;BME280;21205;37.378;127.098;2023-03-14T13:52:31;100625.34;;;18.52;28.50
35011;BME280;21205;37.378;127.098;2023-03-14T13:55:05;100611.75;;;18.50;28.80
35011;BME280;21205;37.378;127.098;2023-03-14T13:57:50;100618.97;;;18.51;28.50
35011;BME280;21205;37.378;127.098;2023-03-14T14:00:27;100617.34;;;18.50;28.86
35011;BME280;21205;37.378;127.098;2023-03-14T14:02:59;100619.31;;;18.50;28.97
35011;BME280;21205;37.378;127.098;2023-03-14T14:05:30;100622.44;;;18.48;28.66
35011;BME280;21205;37.378;127.098;2023-03-14T14:08:02;100619.66;;;18.48;28.67
35011;BME280;21205;37.378;127.098;2023-03-14T14:10:33;100627.19;;;18.48;29.09
35011;BME280;21205;37.378;127.098;2023-03-14T14:13:10;100630.78;;;18.48;29.32
35011;BME280;21205;37.378;127.098;2023-03-14T14:15:45;100626.38;;;18.47;28.84
35011;BME280;21205;37.378;127.098;2023-03-14T14:18:18;100623.94;;;18.46;28.93
35011;BME280;21205;37.378;127.098;2023-03-14T14:20:52;100639.00;;;18.45;29.11
35011;BME280;21205;37.378;127.098;2023-03-14T14:23:25;100632.63;;;18.44;28.83
35011;BME280;21205;37.378;127.098;2023-03-14T14:25:57;100628.22;;;18.43;29.31
35011;BME280;21205;37.378;127.098;2023-03-14T14:28:33;100645.72;;;18.44;28.89
35011;BME280;21205;37.378;127.098;2023-03-14T14:31:20;100648.03;;;18.42;28.92